In Rescue
 
Open Full Screen Window  High Contrast Mode
Wind Gusting 00 knots
05
March 19, 2019 5:48 PM CDT
Weather Information
Wind Direction
  250 °
Wind Speed
  05 kt (6 mph)
Wind Gust
  00 kt (0 mph)
Altimeter
30.16 in
Visibility
10 SM
Temperature
05° C
41° F
Dewpoint
01° C
34° F
Humidity
76%
1hr Rain Fall
00.00 in.
24hr Rain Fall
00.00 in.
Sky Condition
Clear
VFR

METAR KTKC 192248Z AUTO 25005KT 10SM CLR 05/01 A3016 RMK AO2 T00470007 TSNO

FAA Disclaimer: The data displayed is for advisory purposes only and is not to be used for flight planning or operations.